M I D A S
Marine Information and Data Acquisition System
Tripno 2148 of the Zeeleeuw from 2011-07-19 06:41:00 to 2011-07-19 14:12:29
Back to CruiseResearch ActivitiesStationsMapUnderway DataData graphs

EquipmentUnitsComment
TimeDGPSUTC
LatitudeDGPSDM.mWGS84
LongitudeDGPSDM.mWGS84
HeadingGyrodeg 
SOGDGPSknotsSpeed over ground
COGDGPSdegCourse over ground
DepthEcho soundermeters200 kHz
Missing or incorrect values are displayed as -999
Navigation data collected by the RV Zeeleeuw from 2011-07-19 06:43:17 to 2011-07-19 14:18:08
                                                                                    Next 1000 lines
Time Latitude Longitude Heading SOG COG Depth
2011-07-19 06:43:28 51°13.635 2°56.019 116.4 0.1 169 7.3
2011-07-19 06:43:33 51°13.635 2°56.019 115.5 0.1 193 7.3
2011-07-19 06:43:37 51°13.635 2°56.019 114.5 0.1 196 7.3
2011-07-19 06:43:43 51°13.635 2°56.019 113.5 0.1 201 7.3
2011-07-19 06:43:48 51°13.635 2°56.019 112.6 0.1 251 7.3
2011-07-19 06:43:53 51°13.635 2°56.018 111.9 0.4 282 7.3
2011-07-19 06:43:57 51°13.636 2°56.017 111.7 0.8 285 7.4
2011-07-19 06:44:02 51°13.636 2°56.014 111.6 1.2 289 7.5
2011-07-19 06:44:08 51°13.637 2°56.01 111.7 1.6 290 7.6
2011-07-19 06:44:13 51°13.638 2°56.006 112.1 2 293 7.7
2011-07-19 06:44:18 51°13.64 2°56.001 112.7 2.4 294 -999
2011-07-19 06:44:24 51°13.642 2°55.994 113.3 2.8 296 -999
2011-07-19 06:44:30 51°13.644 2°55.987 113.6 3.1 295 -999
2011-07-19 06:44:35 51°13.646 2°55.98 113.8 3.4 295 -999
2011-07-19 06:44:41 51°13.648 2°55.971 113.8 3.7 295 -999
2011-07-19 06:44:46 51°13.651 2°55.964 113.6 3.9 295 -999
2011-07-19 06:44:51 51°13.653 2°55.956 113.3 4.1 294 -999
2011-07-19 06:44:56 51°13.656 2°55.947 113.3 4.3 295 -999
2011-07-19 06:45:01 51°13.658 2°55.938 112.9 4.4 294 -999
2011-07-19 06:45:06 51°13.661 2°55.929 112.6 4.5 294 -999
2011-07-19 06:45:11 51°13.664 2°55.919 112.1 4.7 293 -999
2011-07-19 06:45:16 51°13.666 2°55.909 111.5 4.8 292 -999
2011-07-19 06:45:21 51°13.668 2°55.899 111 4.9 291 -999
2011-07-19 06:45:26 51°13.671 2°55.889 110.2 4.9 290 -999
2011-07-19 06:45:32 51°13.674 2°55.877 109.2 4.9 289 -999
2011-07-19 06:45:37 51°13.676 2°55.866 107.9 4.9 287 -999
2011-07-19 06:45:42 51°13.678 2°55.856 106.4 4.9 286 -999
2011-07-19 06:45:46 51°13.679 2°55.848 104.8 4.7 284 -999
2011-07-19 06:45:51 51°13.68 2°55.838 103.3 4.6 283 -999
2011-07-19 06:45:56 51°13.682 2°55.829 101.8 4.3 283 -999
2011-07-19 06:46:01 51°13.683 2°55.82 100.6 4.1 281 -999
2011-07-19 06:46:06 51°13.684 2°55.811 99.7 4 283 -999
2011-07-19 06:46:11 51°13.685 2°55.803 99.4 3.9 283 -999
2011-07-19 06:46:16 51°13.686 2°55.794 99.2 3.7 283 -999
2011-07-19 06:46:21 51°13.687 2°55.787 99 3.6 282 -999
2011-07-19 06:46:26 51°13.689 2°55.779 98.8 3.4 284 -999
2011-07-19 06:46:31 51°13.69 2°55.772 98.3 3.3 283 5
2011-07-19 06:46:35 51°13.69 2°55.767 97.5 3 284 4.9
2011-07-19 06:46:41 51°13.691 2°55.761 96.6 2 283 4.8
2011-07-19 06:46:46 51°13.692 2°55.758 93.9 1.5 283 4.8
2011-07-19 06:46:51 51°13.692 2°55.755 90.4 1.2 286 4.8
2011-07-19 06:46:56 51°13.692 2°55.753 85.9 1 283 -999
2011-07-19 06:47:01 51°13.693 2°55.752 82.1 0.8 289 -999
2011-07-19 06:47:07 51°13.693 2°55.75 77.7 0.6 296 -999
2011-07-19 06:47:12 51°13.694 2°55.75 74.4 0.5 328 -999
2011-07-19 06:47:16 51°13.695 2°55.75 70.9 0.7 20 -999
2011-07-19 06:47:21 51°13.696 2°55.752 66.3 0.9 44 -999
2011-07-19 06:47:27 51°13.697 2°55.753 59.6 1.1 33 -999
2011-07-19 06:47:31 51°13.698 2°55.754 52.5 0.8 39 -999
2011-07-19 06:47:36 51°13.699 2°55.755 48.4 0.6 19 -999
2011-07-19 06:47:41 51°13.699 2°55.755 45.8 0.3 26 -999
2011-07-19 06:47:46 51°13.699 2°55.755 42.8 0.2 295 -999
2011-07-19 06:47:52 51°13.699 2°55.754 39.6 0.4 229 -999
2011-07-19 06:47:57 51°13.698 2°55.753 36.6 0.7 231 -999
2011-07-19 06:48:01 51°13.698 2°55.752 34.3 0.9 218 -999
2011-07-19 06:48:06 51°13.696 2°55.751 32.7 1.2 217 -999
2011-07-19 06:48:11 51°13.695 2°55.749 30.6 1.4 213 -999
2011-07-19 06:48:16 51°13.693 2°55.747 28.8 1.8 211 -999
2011-07-19 06:48:21 51°13.69 2°55.745 27.5 1.9 209 8.6
2011-07-19 06:48:26 51°13.688 2°55.743 25.9 1.8 209 -999
2011-07-19 06:48:31 51°13.686 2°55.741 24.7 1.7 208 -999
2011-07-19 06:48:36 51°13.685 2°55.739 23.5 1.3 209 -999
2011-07-19 06:48:41 51°13.684 2°55.739 22.6 0.8 206 -999
2011-07-19 06:48:46 51°13.683 2°55.738 20.4 0.2 239 -999
2011-07-19 06:48:51 51°13.684 2°55.738 16.6 0.4 351 -999
2011-07-19 06:48:56 51°13.685 2°55.738 11.7 0.7 355 -999
2011-07-19 06:49:01 51°13.686 2°55.738 5.9 1.2 355 -999
2011-07-19 06:49:06 51°13.689 2°55.737 359.5 1.7 348 -999
2011-07-19 06:49:11 51°13.692 2°55.736 352.8 2.1 346 -999
2011-07-19 06:49:16 51°13.695 2°55.734 346.3 2.5 339 -999
2011-07-19 06:49:21 51°13.698 2°55.732 341.1 2.8 339 5.1
2011-07-19 06:49:26 51°13.703 2°55.729 338.7 3.2 336 4.8
2011-07-19 06:49:31 51°13.707 2°55.726 337.1 3.7 336 -999
2011-07-19 06:49:36 51°13.712 2°55.722 335.8 4 334 -999
2011-07-19 06:49:41 51°13.718 2°55.718 335.2 4.3 334 -999
2011-07-19 06:49:46 51°13.724 2°55.713 335.1 4.7 334 11.9
2011-07-19 06:49:51 51°13.73 2°55.708 335.1 5.2 335 -999
2011-07-19 06:49:56 51°13.737 2°55.703 335.1 5.4 333 -999
2011-07-19 06:50:01 51°13.744 2°55.697 335 5.7 334 11.4
2011-07-19 06:50:05 51°13.75 2°55.693 335 6 333 11.3
2011-07-19 06:50:11 51°13.759 2°55.685 334.9 6.2 334 11.3
2011-07-19 06:50:16 51°13.767 2°55.679 334.9 6.5 334 11.3
2011-07-19 06:50:21 51°13.776 2°55.673 335 6.7 334 -999
2011-07-19 06:50:26 51°13.785 2°55.666 335.6 7 335 -999
2011-07-19 06:50:31 51°13.794 2°55.66 336.1 7.1 335 -999
2011-07-19 06:50:36 51°13.803 2°55.653 336.1 7.3 335 -999
2011-07-19 06:50:41 51°13.813 2°55.647 336.1 7.4 335 -999
2011-07-19 06:50:46 51°13.823 2°55.64 336.6 7.5 336 -999
2011-07-19 06:50:51 51°13.833 2°55.633 337.2 7.7 337 -999
2011-07-19 06:50:56 51°13.843 2°55.627 337.7 7.9 337 -999
2011-07-19 06:51:01 51°13.853 2°55.62 337.8 8 337 11.3
2011-07-19 06:51:06 51°13.863 2°55.613 337.7 8.3 338 -999
2011-07-19 06:51:11 51°13.874 2°55.607 338 8.3 337 11.2
2011-07-19 06:51:16 51°13.885 2°55.6 338.3 8.4 337 11.3
2011-07-19 06:51:21 51°13.897 2°55.593 338.3 8.5 337 11.5
2011-07-19 06:51:26 51°13.908 2°55.586 338.1 8.6 337 11.3
2011-07-19 06:51:31 51°13.919 2°55.578 338.1 8.7 336 -999
2011-07-19 06:51:36 51°13.93 2°55.569 337.7 8.8 336 11.3
2011-07-19 06:51:41 51°13.941 2°55.561 337.1 8.8 336 11.3
2011-07-19 06:51:46 51°13.953 2°55.553 337.6 8.9 337 11.3
2011-07-19 06:51:51 51°13.963 2°55.544 338 9 335 11.3
2011-07-19 06:51:56 51°13.974 2°55.535 336.9 9.1 335 11.3
2011-07-19 06:52:01 51°13.985 2°55.526 335.9 9.1 335 -999
2011-07-19 06:52:06 51°13.996 2°55.518 336.1 9.2 336 -999
2011-07-19 06:52:11 51°14.007 2°55.509 336.2 9.2 334 -999
2011-07-19 06:52:16 51°14.019 2°55.5 336.1 9.3 336 11.3
2011-07-19 06:52:21 51°14.031 2°55.491 336.5 9.3 335 11.3
2011-07-19 06:52:25 51°14.04 2°55.484 336.9 9.4 335 11.3
2011-07-19 06:52:31 51°14.054 2°55.473 336.5 9.5 334 11.3
2011-07-19 06:52:36 51°14.066 2°55.464 336.1 9.5 336 11.3
2011-07-19 06:52:40 51°14.076 2°55.457 336.6 9.6 335 11.4
2011-07-19 06:52:45 51°14.088 2°55.448 336.6 9.6 335 11.4
2011-07-19 06:52:50 51°14.099 2°55.438 336.1 9.6 334 11.3
2011-07-19 06:52:55 51°14.111 2°55.429 335.2 9.6 334 11.3
2011-07-19 06:53:00 51°14.123 2°55.419 335.1 9.6 334 11.3
2011-07-19 06:53:05 51°14.135 2°55.409 335.1 9.7 333 11.3
2011-07-19 06:53:09 51°14.145 2°55.402 334.7 9.7 333 11.3
2011-07-19 06:53:14 51°14.157 2°55.392 334.2 9.8 332 11.3
2011-07-19 06:53:20 51°14.171 2°55.379 333.6 9.8 332 -999
2011-07-19 06:53:25 51°14.184 2°55.369 333.5 9.9 332 11.3
2011-07-19 06:53:29 51°14.193 2°55.361 333.6 9.9 332 11.3
2011-07-19 06:53:35 51°14.208 2°55.348 333.6 10 332 -999
2011-07-19 06:53:40 51°14.22 2°55.338 333.5 10 331 -999
2011-07-19 06:53:45 51°14.232 2°55.327 333.1 10.1 332 11.3
2011-07-19 06:53:50 51°14.245 2°55.317 333 10.1 332 11.3
2011-07-19 06:53:56 51°14.259 2°55.304 333.2 10.1 331 -999
2011-07-19 06:54:01 51°14.272 2°55.293 333.2 10.2 332 11.2
2011-07-19 06:54:06 51°14.284 2°55.282 333.2 10.2 330 11.3
2011-07-19 06:54:10 51°14.294 2°55.273 332.3 10.3 330 11.2
2011-07-19 06:54:16 51°14.309 2°55.259 331.9 10.4 330 11.5
2011-07-19 06:54:21 51°14.322 2°55.247 331.4 10.4 329 11.2
2011-07-19 06:54:26 51°14.334 2°55.235 330.9 10.5 330 11.3
2011-07-19 06:54:31 51°14.346 2°55.223 330.9 10.5 329 -999
2011-07-19 06:54:36 51°14.359 2°55.211 330.5 10.5 330 11.3
2011-07-19 06:54:41 51°14.372 2°55.199 330.9 10.6 329 -999
2011-07-19 06:54:46 51°14.385 2°55.187 331 10.7 329 -999
2011-07-19 06:54:51 51°14.397 2°55.175 330.6 10.7 329 -999
2011-07-19 06:54:56 51°14.41 2°55.163 330.3 10.7 329 11.2
2011-07-19 06:55:01 51°14.423 2°55.15 330.3 10.7 329 11.4
2011-07-19 06:55:06 51°14.435 2°55.138 330.5 10.8 329 -999
2011-07-19 06:55:11 51°14.448 2°55.126 330.7 10.9 329 11.4
2011-07-19 06:55:16 51°14.461 2°55.113 330.4 10.9 328 -999
2011-07-19 06:55:21 51°14.474 2°55.1 330 11 328 11.3
2011-07-19 06:55:25 51°14.484 2°55.089 329 11.2 326 11.4
2011-07-19 06:55:30 51°14.498 2°55.076 328.2 11.3 328 11.3
2011-07-19 06:55:35 51°14.511 2°55.062 328.9 11.5 328 11.4
2011-07-19 06:55:40 51°14.525 2°55.049 329.5 11.7 327 11.3
2011-07-19 06:55:45 51°14.538 2°55.034 329.6 11.8 327 11.6
2011-07-19 06:55:49 51°14.549 2°55.021 329.9 12.2 322 11.9
2011-07-19 06:55:54 51°14.562 2°55.003 327.9 12.4 319 11.6
2011-07-19 06:55:59 51°14.575 2°54.985 326 12.5 318 12
2011-07-19 06:56:04 51°14.589 2°54.967 325.7 12.6 321 11.8
2011-07-19 06:56:09 51°14.602 2°54.949 326.8 12.7 321 11.9
2011-07-19 06:56:14 51°14.616 2°54.931 327.6 12.8 321 12
2011-07-19 06:56:18 51°14.627 2°54.917 328.1 12.8 322 12.2
2011-07-19 06:56:23 51°14.642 2°54.9 328.5 12.9 322 11.9
2011-07-19 06:56:29 51°14.659 2°54.879 328.8 12.9 323 12
2011-07-19 06:56:33 51°14.67 2°54.865 329.4 12.9 323 11.8
2011-07-19 06:56:38 51°14.685 2°54.848 329.6 12.9 324 12.2
2011-07-19 06:56:43 51°14.699 2°54.832 330.4 12.9 324 12
2011-07-19 06:56:48 51°14.714 2°54.815 330.6 12.9 324 11.7
2011-07-19 06:56:53 51°14.728 2°54.799 330.7 12.8 325 11.8
2011-07-19 06:56:57 51°14.74 2°54.786 331.2 12.8 326 11.9
2011-07-19 06:57:02 51°14.755 2°54.77 331.3 12.8 327 11.9
2011-07-19 06:57:07 51°14.77 2°54.756 332.5 12.7 329 11.9
2011-07-19 06:57:13 51°14.788 2°54.738 333.2 12.7 327 11.9
2011-07-19 06:57:17 51°14.8 2°54.726 333.1 12.7 329 12
2011-07-19 06:57:21 51°14.812 2°54.715 333.7 12.7 330 12
2011-07-19 06:57:27 51°14.83 2°54.698 334 12.7 329 12.2
2011-07-19 06:57:33 51°14.849 2°54.681 334 12.6 330 12.1
2011-07-19 06:57:37 51°14.861 2°54.67 334.6 12.7 330 12.1
2011-07-19 06:57:42 51°14.877 2°54.656 334.5 12.8 331 12.2
2011-07-19 06:57:48 51°14.895 2°54.639 334.5 12.7 331 12.1
2011-07-19 06:57:52 51°14.907 2°54.628 334.7 12.7 331 12.2
2011-07-19 06:57:57 51°14.923 2°54.615 334.8 12.8 331 12.1
2011-07-19 06:58:02 51°14.938 2°54.601 334.4 12.7 331 11.4
2011-07-19 06:58:08 51°14.957 2°54.585 334.4 12.7 331 10.8
2011-07-19 06:58:12 51°14.969 2°54.573 334.3 12.7 330 10.8
2011-07-19 06:58:17 51°14.984 2°54.559 333.8 12.7 330 10.4
2011-07-19 06:58:22 51°14.999 2°54.543 332.1 12.7 326 10.5
2011-07-19 06:58:28 51°15.016 2°54.524 330.1 12.7 325 10.4
2011-07-19 06:58:33 51°15.03 2°54.507 328.2 12.8 323 10.2
2011-07-19 06:58:37 51°15.041 2°54.493 326 12.8 322 10
2011-07-19 06:58:42 51°15.055 2°54.475 324.2 12.7 320 9.9
2011-07-19 06:58:48 51°15.071 2°54.454 323.8 12.7 321 10
2011-07-19 06:58:53 51°15.084 2°54.435 322.7 12.8 318 10.2
2011-07-19 06:58:57 51°15.095 2°54.42 320.9 12.8 318 10.3
2011-07-19 06:59:02 51°15.108 2°54.401 320.2 12.8 318 10.5
2011-07-19 06:59:08 51°15.124 2°54.378 319.6 12.8 318 10.9
2011-07-19 06:59:13 51°15.137 2°54.359 319.4 12.9 318 11.3
2011-07-19 06:59:17 51°15.148 2°54.345 320.8 12.9 320 11.3
2011-07-19 06:59:22 51°15.162 2°54.326 321.8 12.9 320 11.3
2011-07-19 06:59:27 51°15.176 2°54.308 322.4 12.9 321 11.6
2011-07-19 06:59:33 51°15.193 2°54.287 323 12.9 321 11.6
2011-07-19 06:59:37 51°15.204 2°54.273 323.2 13 322 11.8
2011-07-19 06:59:42 51°15.219 2°54.255 324.2 13 323 11.6
2011-07-19 06:59:47 51°15.233 2°54.238 325.2 13 324 11.7
2011-07-19 06:59:52 51°15.248 2°54.222 326.1 13 325 11.7
2011-07-19 06:59:57 51°15.263 2°54.206 327.3 13 326 11.7
2011-07-19 07:00:02 51°15.278 2°54.19 328.7 13 327 11.7
2011-07-19 07:00:08 51°15.296 2°54.171 329.1 13 327 11.5
2011-07-19 07:00:12 51°15.308 2°54.159 329.1 13 326 11.2
2011-07-19 07:00:17 51°15.323 2°54.142 328.4 12.9 325 11.1
2011-07-19 07:00:22 51°15.337 2°54.126 327.7 13 325 11
2011-07-19 07:00:28 51°15.354 2°54.105 326.5 12.9 323 10.6
2011-07-19 07:00:32 51°15.366 2°54.092 325.2 13 323 10.6
2011-07-19 07:00:37 51°15.38 2°54.074 324 13 321 10.6
2011-07-19 07:00:42 51°15.394 2°54.055 323 13 320 10.8
2011-07-19 07:00:48 51°15.41 2°54.033 322.3 13 319 11.4
2011-07-19 07:00:53 51°15.423 2°54.013 321.7 13 318 11.6
2011-07-19 07:00:57 51°15.434 2°53.998 321.3 13 317 11.8
2011-07-19 07:01:02 51°15.448 2°53.979 321.1 13 319 12.1
2011-07-19 07:01:08 51°15.464 2°53.957 322.3 12.9 319 12
2011-07-19 07:01:13 51°15.478 2°53.939 323.3 12.8 321 11.9
2011-07-19 07:01:17 51°15.49 2°53.925 325.2 12.9 323 11.9
2011-07-19 07:01:22 51°15.504 2°53.908 326.4 12.8 324 11.9
2011-07-19 07:01:28 51°15.521 2°53.889 328.2 12.8 325 12
2011-07-19 07:01:33 51°15.536 2°53.873 329.2 12.7 326 11.5
2011-07-19 07:01:37 51°15.547 2°53.861 330.2 12.7 327 11.9
2011-07-19 07:01:42 51°15.562 2°53.845 330.8 12.7 327 11.9
2011-07-19 07:01:47 51°15.577 2°53.829 330.7 12.8 326 11.9
2011-07-19 07:01:53 51°15.594 2°53.81 330.1 12.8 325 11.6
2011-07-19 07:01:57 51°15.606 2°53.797 329.2 12.7 324 11.7
2011-07-19 07:02:02 51°15.62 2°53.78 328.3 12.7 323 11.7
2011-07-19 07:02:07 51°15.634 2°53.763 327.1 12.7 322 11.5
2011-07-19 07:02:12 51°15.648 2°53.746 326.8 12.7 322 11.6
2011-07-19 07:02:17 51°15.662 2°53.728 326.5 12.8 322 11.3
2011-07-19 07:02:22 51°15.676 2°53.711 326.1 12.8 322 11.3
2011-07-19 07:02:28 51°15.692 2°53.69 326 12.8 322 11.6
2011-07-19 07:02:32 51°15.703 2°53.676 326.4 12.8 322 11.4
2011-07-19 07:02:37 51°15.717 2°53.658 326.4 12.8 322 11.5
2011-07-19 07:02:42 51°15.731 2°53.641 326 12.8 321 11.4
2011-07-19 07:02:48 51°15.748 2°53.62 326 12.8 322 11.5
2011-07-19 07:02:53 51°15.762 2°53.602 326.3 12.9 322 11.9
2011-07-19 07:02:57 51°15.774 2°53.588 326.3 12.9 322 12
2011-07-19 07:03:02 51°15.788 2°53.571 326 12.9 321 11.9
2011-07-19 07:03:08 51°15.804 2°53.549 325.5 12.9 321 11.9
2011-07-19 07:03:13 51°15.818 2°53.531 325.1 12.9 321 12.1
2011-07-19 07:03:17 51°15.829 2°53.517 324.7 12.9 321 12.1
2011-07-19 07:03:22 51°15.843 2°53.499 325.1 12.8 323 12.2
2011-07-19 07:03:28 51°15.861 2°53.48 327.7 12.8 326 11.8
2011-07-19 07:03:33 51°15.876 2°53.465 330.4 12.8 328 11.7
2011-07-19 07:03:37 51°15.888 2°53.454 332.4 12.7 330 12.1
2011-07-19 07:03:42 51°15.904 2°53.44 334.4 12.7 332 12
2011-07-19 07:03:48 51°15.923 2°53.425 336.5 12.7 333 11.9
2011-07-19 07:03:53 51°15.939 2°53.412 337.7 12.8 334 11.9
2011-07-19 07:03:57 51°15.952 2°53.403 338.9 12.8 335 11.7
2011-07-19 07:04:02 51°15.968 2°53.391 339.5 12.8 335 11.8
2011-07-19 07:04:07 51°15.984 2°53.379 339.8 12.8 336 11.7
2011-07-19 07:04:13 51°16.003 2°53.366 340.2 12.8 336 11.6
2011-07-19 07:04:17 51°16.016 2°53.356 340.2 12.8 336 11.7
2011-07-19 07:04:22 51°16.032 2°53.345 339.8 12.8 335 11.5
2011-07-19 07:04:28 51°16.051 2°53.33 339.5 12.7 335 11.8
2011-07-19 07:04:33 51°16.067 2°53.317 338.9 12.8 333 11.8
2011-07-19 07:04:37 51°16.08 2°53.307 337.7 12.8 333 11.8
2011-07-19 07:04:42 51°16.095 2°53.294 337.6 12.7 333 11.9
2011-07-19 07:04:48 51°16.114 2°53.278 336.9 12.7 332 11.9
2011-07-19 07:04:52 51°16.126 2°53.268 336.1 12.7 331 11.6
2011-07-19 07:04:57 51°16.142 2°53.254 335.7 12.8 331 11.9
2011-07-19 07:05:02 51°16.157 2°53.24 335.3 12.7 331 11.9
2011-07-19 07:05:08 51°16.175 2°53.223 334.7 12.7 331 12
2011-07-19 07:05:13 51°16.191 2°53.21 335.2 12.8 332 12
2011-07-19 07:05:17 51°16.203 2°53.2 336 12.7 332 12
2011-07-19 07:05:22 51°16.219 2°53.187 337 12.7 334 11.9
2011-07-19 07:05:28 51°16.238 2°53.172 338 12.7 333 12.1
2011-07-19 07:05:33 51°16.254 2°53.16 338.3 12.6 334 12
2011-07-19 07:05:37 51°16.267 2°53.15 338.6 12.7 334 12
2011-07-19 07:05:42 51°16.283 2°53.138 338.6 12.7 333 11.9
2011-07-19 07:05:48 51°16.302 2°53.123 337.6 12.7 333 12
2011-07-19 07:05:53 51°16.317 2°53.11 337 12.7 333 12
2011-07-19 07:05:57 51°16.33 2°53.099 336.6 12.8 332 12.1
2011-07-19 07:06:02 51°16.345 2°53.085 335.7 12.7 331 12
2011-07-19 07:06:08 51°16.363 2°53.067 334.4 12.8 329 12
2011-07-19 07:06:13 51°16.378 2°53.053 333.2 12.7 329 11.9
2011-07-19 07:06:17 51°16.39 2°53.041 332.9 12.7 329 11.9
2011-07-19 07:06:22 51°16.405 2°53.026 332.5 12.8 329 12.2
2011-07-19 07:06:27 51°16.421 2°53.012 332.5 12.8 329 11.9
2011-07-19 07:06:33 51°16.439 2°52.994 332.6 12.7 329 12
2011-07-19 07:06:37 51°16.451 2°52.983 332.7 12.6 329 11.9
2011-07-19 07:06:42 51°16.466 2°52.969 333.7 12.6 331 11.9
2011-07-19 07:06:48 51°16.485 2°52.953 334.8 12.7 332 11.9
2011-07-19 07:06:52 51°16.497 2°52.943 336.1 12.7 333 11.9
2011-07-19 07:06:57 51°16.513 2°52.931 336.9 12.7 334 11.9
2011-07-19 07:07:02 51°16.529 2°52.919 337.7 12.7 335 11.8
2011-07-19 07:07:08 51°16.549 2°52.905 339 12.7 337 11.7
2011-07-19 07:07:12 51°16.562 2°52.897 340.9 12.6 339 11.9
2011-07-19 07:07:17 51°16.578 2°52.887 341.9 12.6 338 11.6
2011-07-19 07:07:22 51°16.595 2°52.877 342.7 12.7 339 11.6
2011-07-19 07:07:28 51°16.614 2°52.865 343 12.7 339 11.4
2011-07-19 07:07:33 51°16.63 2°52.855 343.1 12.6 338 11.2
2011-07-19 07:07:37 51°16.643 2°52.847 342.9 12.7 339 11
2011-07-19 07:07:42 51°16.66 2°52.836 342.8 12.7 338 11.1
2011-07-19 07:07:48 51°16.679 2°52.823 341.9 12.7 337 11.2
2011-07-19 07:07:53 51°16.695 2°52.812 341.2 12.7 337 11
2011-07-19 07:07:57 51°16.708 2°52.803 340.4 12.7 336 10.8
2011-07-19 07:08:02 51°16.724 2°52.791 339.6 12.6 335 10.6
2011-07-19 07:08:08 51°16.743 2°52.777 339 12.6 334 10.2
2011-07-19 07:08:13 51°16.758 2°52.764 337.7 12.6 333 9.7
2011-07-19 07:08:17 51°16.771 2°52.754 337 12.5 333 9.9
2011-07-19 07:08:22 51°16.787 2°52.742 336.7 12.6 333 9.8
2011-07-19 07:08:27 51°16.802 2°52.729 336.6 12.6 333 9.8
2011-07-19 07:08:33 51°16.821 2°52.714 336.3 12.6 333 9.7
2011-07-19 07:08:37 51°16.833 2°52.704 336.4 12.6 333 9.6
2011-07-19 07:08:42 51°16.849 2°52.691 336.6 12.6 334 9.5
2011-07-19 07:08:47 51°16.865 2°52.679 336.9 12.6 333 9.5
2011-07-19 07:08:53 51°16.883 2°52.664 337.2 12.6 334 9.6
2011-07-19 07:08:57 51°16.896 2°52.654 336.8 12.6 333 9.7
2011-07-19 07:09:02 51°16.911 2°52.641 336.7 12.6 334 9.8
2011-07-19 07:09:08 51°16.93 2°52.626 336.6 12.7 333 9.9
2011-07-19 07:09:12 51°16.942 2°52.616 336.5 12.6 333 9.9
2011-07-19 07:09:17 51°16.958 2°52.604 336.4 12.6 333 10.1
2011-07-19 07:09:22 51°16.974 2°52.591 336.5 12.7 334 10
2011-07-19 07:09:28 51°16.993 2°52.576 337 12.7 334 9.7
2011-07-19 07:09:33 51°17.009 2°52.564 337.1 12.6 334 9.7
2011-07-19 07:09:37 51°17.021 2°52.555 337.9 12.6 336 9.6
2011-07-19 07:09:42 51°17.037 2°52.544 339.3 12.6 337 9.8
2011-07-19 07:09:48 51°17.057 2°52.532 340.7 12.6 339 9.9
2011-07-19 07:09:53 51°17.073 2°52.521 342 12.6 339 9.7
2011-07-19 07:09:57 51°17.087 2°52.514 343.1 12.6 340 9.9
2011-07-19 07:10:02 51°17.103 2°52.505 343.8 12.6 340 10
2011-07-19 07:10:08 51°17.123 2°52.493 343.7 12.6 339 9.8
2011-07-19 07:10:13 51°17.139 2°52.483 343.4 12.6 339 10
2011-07-19 07:10:17 51°17.152 2°52.475 343.4 12.7 339 10.1
2011-07-19 07:10:22 51°17.169 2°52.466 343.6 12.7 340 10.1
2011-07-19 07:10:28 51°17.189 2°52.454 343.5 12.7 339 10.1
2011-07-19 07:10:33 51°17.205 2°52.444 343.1 12.7 340 10.1
2011-07-19 07:10:37 51°17.218 2°52.436 343.3 12.7 339 10.2
2011-07-19 07:10:42 51°17.235 2°52.426 343.3 12.7 340 10.2
2011-07-19 07:10:47 51°17.252 2°52.416 343.4 12.7 339 10.2
2011-07-19 07:10:53 51°17.271 2°52.404 343.3 12.7 338 10.2
2011-07-19 07:10:57 51°17.284 2°52.395 342.1 12.7 336 10.4
2011-07-19 07:11:02 51°17.3 2°52.383 340.9 12.7 336 10.4
2011-07-19 07:11:08 51°17.319 2°52.369 339.5 12.7 335 10.4
2011-07-19 07:11:13 51°17.335 2°52.356 338.2 12.7 333 10.5
2011-07-19 07:11:17 51°17.347 2°52.346 337 12.6 333 10.5
2011-07-19 07:11:22 51°17.363 2°52.333 336.9 12.7 333 10.5
2011-07-19 07:11:28 51°17.382 2°52.317 336.5 12.7 333 10.4
2011-07-19 07:11:32 51°17.394 2°52.307 336.2 12.7 332 10.4
2011-07-19 07:11:37 51°17.409 2°52.294 336.1 12.7 332 10.5
2011-07-19 07:11:42 51°17.425 2°52.281 335.9 12.7 332 10.6
2011-07-19 07:11:48 51°17.444 2°52.266 336.4 12.7 333 10.9
2011-07-19 07:11:53 51°17.459 2°52.253 336.9 12.6 333 11
2011-07-19 07:11:57 51°17.472 2°52.244 336.9 12.7 334 11.1
2011-07-19 07:12:02 51°17.488 2°52.231 337.8 12.8 335 11.1
2011-07-19 07:12:08 51°17.508 2°52.218 338.5 12.8 336 11.2
2011-07-19 07:12:13 51°17.524 2°52.206 339.7 12.8 337 11.2
2011-07-19 07:12:17 51°17.538 2°52.198 340.9 12.7 338 11.1
2011-07-19 07:12:22 51°17.554 2°52.188 341.9 12.7 339 11.3
2011-07-19 07:12:28 51°17.574 2°52.176 342.5 12.7 339 11.2
2011-07-19 07:12:33 51°17.59 2°52.166 342.7 12.7 339 11.3
2011-07-19 07:12:37 51°17.604 2°52.158 343.2 12.7 339 11.2
2011-07-19 07:12:42 51°17.62 2°52.147 342.5 12.7 338 11.2
2011-07-19 07:12:48 51°17.64 2°52.135 341.9 12.7 339 11.2
2011-07-19 07:12:53 51°17.656 2°52.124 341.9 12.7 337 11
2011-07-19 07:12:57 51°17.669 2°52.115 341.2 12.8 336 11.2
2011-07-19 07:13:02 51°17.685 2°52.104 340.3 12.8 335 11
2011-07-19 07:13:07 51°17.701 2°52.092 339.1 12.7 334 11
2011-07-19 07:13:13 51°17.72 2°52.077 337.8 12.7 333 11
2011-07-19 07:13:17 51°17.732 2°52.066 337.2 12.8 333 11.2
2011-07-19 07:13:22 51°17.748 2°52.053 336.7 12.7 332 10.8
2011-07-19 07:13:28 51°17.767 2°52.038 336.1 12.7 332 11
2011-07-19 07:13:32 51°17.779 2°52.027 336 12.7 333 11.1
2011-07-19 07:13:37 51°17.795 2°52.014 336 12.7 333 10.7
2011-07-19 07:13:42 51°17.811 2°52.001 336.3 12.7 333 10.2
2011-07-19 07:13:48 51°17.83 2°51.987 337.1 12.7 335 10.3
2011-07-19 07:13:52 51°17.842 2°51.977 338.2 12.7 335 10.3
2011-07-19 07:13:57 51°17.859 2°51.966 339.5 12.7 336 10
2011-07-19 07:14:02 51°17.875 2°51.956 341.1 12.6 338 10.2
2011-07-19 07:14:08 51°17.894 2°51.943 341.3 12.6 338 10.3
2011-07-19 07:14:13 51°17.911 2°51.932 342.3 12.7 338 10.2
2011-07-19 07:14:17 51°17.924 2°51.924 342.6 12.6 339 10.1
2011-07-19 07:14:22 51°17.94 2°51.914 343.2 12.7 339 10.6
2011-07-19 07:14:28 51°17.96 2°51.901 342.7 12.8 337 10.3
2011-07-19 07:14:33 51°17.976 2°51.89 341.9 12.8 337 10.3
2011-07-19 07:14:37 51°17.988 2°51.88 341 12.7 335 10.4
2011-07-19 07:14:42 51°18.004 2°51.868 339.9 12.7 335 10.5
2011-07-19 07:14:48 51°18.023 2°51.853 338.5 12.7 333 10.5
2011-07-19 07:14:53 51°18.039 2°51.84 337.3 12.8 333 10.6
2011-07-19 07:14:57 51°18.052 2°51.829 336.6 12.8 332 10.4
2011-07-19 07:15:02 51°18.067 2°51.817 336.5 12.8 333 10.8
2011-07-19 07:15:08 51°18.086 2°51.801 336.6 12.8 332 10.7
2011-07-19 07:15:13 51°18.102 2°51.788 336.4 12.8 332 10.7
2011-07-19 07:15:17 51°18.115 2°51.777 336.3 12.8 332 10.8
2011-07-19 07:15:22 51°18.13 2°51.764 335.9 12.8 332 10.9
2011-07-19 07:15:27 51°18.146 2°51.751 336.3 12.8 333 10.9
2011-07-19 07:15:33 51°18.165 2°51.735 337 12.8 333 11.1
2011-07-19 07:15:37 51°18.178 2°51.726 337.4 12.8 334 11
2011-07-19 07:15:42 51°18.194 2°51.713 337.7 12.8 334 11.3
2011-07-19 07:15:48 51°18.213 2°51.699 338.3 12.8 335 11.3
2011-07-19 07:15:52 51°18.226 2°51.69 339.7 12.8 337 11.5
2011-07-19 07:15:57 51°18.243 2°51.679 341 12.8 338 11.5
2011-07-19 07:16:02 51°18.259 2°51.669 342.1 12.8 338 11.6
2011-07-19 07:16:08 51°18.279 2°51.656 342.6 12.8 338 11.5
2011-07-19 07:16:13 51°18.296 2°51.646 342.6 12.8 339 11.8
2011-07-19 07:16:17 51°18.309 2°51.637 342.7 12.8 338 11.8
2011-07-19 07:16:21 51°18.322 2°51.629 342.6 12.8 338 11.9
2011-07-19 07:16:27 51°18.342 2°51.616 342.2 12.9 338 11.9
2011-07-19 07:16:33 51°18.361 2°51.603 342 12.8 338 12.3
2011-07-19 07:16:37 51°18.375 2°51.594 342.1 12.8 337 12.2
2011-07-19 07:16:43 51°18.394 2°51.58 341.8 12.9 337 12.2
2011-07-19 07:16:47 51°18.407 2°51.571 341 12.9 336 12.4
2011-07-19 07:16:53 51°18.427 2°51.557 339.9 12.9 335 12.5
2011-07-19 07:16:57 51°18.439 2°51.547 339.1 12.9 334 12.6
2011-07-19 07:17:01 51°18.452 2°51.536 337.9 12.9 333 12.9
2011-07-19 07:17:07 51°18.471 2°51.52 337 12.8 333 12.8
2011-07-19 07:17:13 51°18.49 2°51.505 336.8 12.9 332 13
2011-07-19 07:17:17 51°18.503 2°51.494 336.4 12.9 332 12.9
2011-07-19 07:17:21 51°18.515 2°51.483 336.1 12.9 332 13
2011-07-19 07:17:27 51°18.534 2°51.467 336.1 12.8 333 13.2
2011-07-19 07:17:33 51°18.554 2°51.452 336.9 12.9 334 13.5
2011-07-19 07:17:37 51°18.566 2°51.442 337.3 12.9 334 13.4
2011-07-19 07:17:41 51°18.579 2°51.432 337.5 12.9 334 13.4
2011-07-19 07:17:47 51°18.598 2°51.417 337.8 12.9 334 13.5
2011-07-19 07:17:52 51°18.615 2°51.405 338.1 12.9 335 13.7
2011-07-19 07:17:57 51°18.631 2°51.392 338.3 12.9 334 13.7
2011-07-19 07:18:01 51°18.643 2°51.382 338 12.9 334 13.9
2011-07-19 07:18:07 51°18.662 2°51.366 337.4 12.9 333 13.9
2011-07-19 07:18:12 51°18.678 2°51.353 337 12.8 333 14
2011-07-19 07:18:17 51°18.694 2°51.341 337 12.8 333 13.9
2011-07-19 07:18:22 51°18.71 2°51.328 337 12.9 334 14.2
2011-07-19 07:18:28 51°18.729 2°51.313 337.7 12.9 334 14.1
2011-07-19 07:18:33 51°18.745 2°51.301 338.3 12.8 336 14.1
2011-07-19 07:18:37 51°18.759 2°51.292 339.8 12.8 337 14.2
2011-07-19 07:18:42 51°18.775 2°51.282 341.1 12.8 338 14.3
2011-07-19 07:18:48 51°18.795 2°51.269 342.1 12.8 338 14.1
2011-07-19 07:18:53 51°18.812 2°51.258 342.4 12.9 339 14.4
2011-07-19 07:18:57 51°18.825 2°51.25 342.6 12.9 338 14.3
2011-07-19 07:19:02 51°18.841 2°51.239 341.9 12.8 337 14.3
2011-07-19 07:19:08 51°18.861 2°51.226 341.6 12.8 337 14.4
2011-07-19 07:19:13 51°18.877 2°51.215 341 12.9 336 14.4
2011-07-19 07:19:17 51°18.89 2°51.205 340.5 12.8 336 14.5
2011-07-19 07:19:22 51°18.907 2°51.194 340.5 12.9 336 14.7
2011-07-19 07:19:28 51°18.926 2°51.18 340.4 12.8 336 14.7
2011-07-19 07:19:33 51°18.942 2°51.168 339.9 12.9 335 14.6
2011-07-19 07:19:37 51°18.955 2°51.158 339.3 12.9 335 14.9
2011-07-19 07:19:42 51°18.972 2°51.146 339.2 12.9 335 14.5
2011-07-19 07:19:47 51°18.988 2°51.134 339.2 12.9 335 14.8
2011-07-19 07:19:53 51°19.007 2°51.12 339.2 12.9 335 14.9
2011-07-19 07:19:57 51°19.02 2°51.111 339 12.9 336 14.9
2011-07-19 07:20:02 51°19.036 2°51.099 339.2 12.9 335 14.8
2011-07-19 07:20:08 51°19.056 2°51.085 339.5 12.8 336 14.9
2011-07-19 07:20:12 51°19.069 2°51.075 339.7 12.9 335 15
2011-07-19 07:20:17 51°19.085 2°51.063 339.7 12.8 336 14.7
2011-07-19 07:20:21 51°19.098 2°51.054 339.6 12.8 336 15
2011-07-19 07:20:27 51°19.117 2°51.04 340 12.8 336 14.8
2011-07-19 07:20:32 51°19.134 2°51.029 340.4 12.9 337 15.1
2011-07-19 07:20:37 51°19.15 2°51.017 340.5 12.9 336 14.8
2011-07-19 07:20:41 51°19.164 2°51.009 340.7 12.9 337 14.8
2011-07-19 07:20:47 51°19.183 2°50.995 341 12.9 337 14.7
2011-07-19 07:20:53 51°19.203 2°50.982 341.4 12.9 337 14.6
2011-07-19 07:20:57 51°19.216 2°50.973 341.5 12.9 337 14.6
2011-07-19 07:21:03 51°19.235 2°50.959 340.9 12.8 335 14.5
2011-07-19 07:21:07 51°19.248 2°50.949 339.8 12.8 335 14.5
2011-07-19 07:21:13 51°19.268 2°50.934 338.8 12.9 334 14.4
2011-07-19 07:21:17 51°19.28 2°50.924 338.1 12.9 334 14.5
2011-07-19 07:21:23 51°19.3 2°50.909 337.8 12.9 333 14.2
2011-07-19 07:21:27 51°19.312 2°50.898 337.5 12.9 333 14.3
2011-07-19 07:21:33 51°19.331 2°50.882 337.3 12.9 332 14.5
2011-07-19 07:21:37 51°19.344 2°50.872 337.3 13 333 14.2
2011-07-19 07:21:41 51°19.357 2°50.861 336.8 13 332 14.2
2011-07-19 07:21:47 51°19.376 2°50.846 336.7 12.9 333 14.1
2011-07-19 07:21:53 51°19.395 2°50.83 336.8 12.9 333 13.9
2011-07-19 07:21:57 51°19.408 2°50.82 337.6 12.9 335 13.7
2011-07-19 07:22:01 51°19.421 2°50.811 338.8 12.9 335 13.6
2011-07-19 07:22:07 51°19.441 2°50.797 340.1 12.9 337 13.5
2011-07-19 07:22:13 51°19.46 2°50.783 340.7 12.9 336 13.3
2011-07-19 07:22:17 51°19.473 2°50.774 340.8 12.9 337 13
2011-07-19 07:22:21 51°19.487 2°50.765 341.3 12.9 338 12.8
2011-07-19 07:22:27 51°19.507 2°50.752 342 13 337 12.6
2011-07-19 07:22:32 51°19.523 2°50.741 341.9 12.9 338 12.3
2011-07-19 07:22:37 51°19.539 2°50.73 341.6 12.9 337 12.2
2011-07-19 07:22:41 51°19.553 2°50.721 341.4 13 336 12.4
2011-07-19 07:22:47 51°19.572 2°50.707 340.7 12.9 336 12.1
2011-07-19 07:22:53 51°19.592 2°50.693 340.3 12.9 335 12.1
2011-07-19 07:22:57 51°19.605 2°50.683 339.5 12.9 335 12.2
2011-07-19 07:23:01 51°19.617 2°50.673 338.8 12.9 334 12
2011-07-19 07:23:07 51°19.637 2°50.658 338.6 13 334 11.8
2011-07-19 07:23:13 51°19.656 2°50.642 337.9 12.9 333 11.7
2011-07-19 07:23:17 51°19.669 2°50.631 337.6 12.9 333 11.3
2011-07-19 07:23:23 51°19.688 2°50.615 337.5 13 332 11.4
2011-07-19 07:23:27 51°19.701 2°50.604 336.9 12.9 332 11.5
2011-07-19 07:23:33 51°19.72 2°50.588 336.7 13.1 332 11.9
2011-07-19 07:23:37 51°19.733 2°50.577 336.6 13.1 332 12.1
2011-07-19 07:23:41 51°19.746 2°50.567 336.4 13.1 332 12.2
2011-07-19 07:23:47 51°19.765 2°50.55 336.5 13.1 332 12.2
2011-07-19 07:23:53 51°19.784 2°50.534 336.5 13.1 332 12.3
2011-07-19 07:23:57 51°19.797 2°50.523 336.7 13.1 332 12.6
2011-07-19 07:24:01 51°19.81 2°50.512 336.7 13.1 332 12.7
2011-07-19 07:24:07 51°19.829 2°50.496 336.8 13.1 333 13
2011-07-19 07:24:13 51°19.849 2°50.481 337.2 13.1 333 13.1
2011-07-19 07:24:17 51°19.862 2°50.471 337.8 13.1 334 13.3
2011-07-19 07:24:21 51°19.875 2°50.461 338.8 13.1 335 13.6
2011-07-19 07:24:27 51°19.895 2°50.446 339.2 13 335 13.8
2011-07-19 07:24:33 51°19.915 2°50.433 340.5 13 337 13.9
2011-07-19 07:24:37 51°19.928 2°50.424 341.4 13.1 337 14.2
2011-07-19 07:24:41 51°19.941 2°50.415 342.1 13 338 14.3
2011-07-19 07:24:47 51°19.962 2°50.402 342.7 13 338 14.5
2011-07-19 07:24:52 51°19.978 2°50.391 342.7 13.1 337 14.9
2011-07-19 07:24:57 51°19.995 2°50.38 342 13 337 14.8
2011-07-19 07:25:01 51°20.008 2°50.371 341.8 13 337 14.9
2011-07-19 07:25:07 51°20.028 2°50.357 341.4 13 336 15.1
2011-07-19 07:25:13 51°20.048 2°50.343 341 13 337 15.4
2011-07-19 07:25:17 51°20.061 2°50.334 341.2 13 337 15.5
2011-07-19 07:25:23 51°20.081 2°50.321 341.8 13 337 15.4
2011-07-19 07:25:27 51°20.094 2°50.312 341.9 13 337 15.3
2011-07-19 07:25:33 51°20.114 2°50.299 341.9 13 337 15.3
2011-07-19 07:25:37 51°20.127 2°50.29 341.8 13 337 15.6
2011-07-19 07:25:43 51°20.147 2°50.276 341.2 13 336 15.6
2011-07-19 07:25:47 51°20.16 2°50.266 340.9 13 335 15.9
2011-07-19 07:25:53 51°20.18 2°50.251 340.3 13 334 15.9
2011-07-19 07:25:57 51°20.193 2°50.241 339 13 333 15.9
2011-07-19 07:26:01 51°20.206 2°50.231 338 13 333 16.3
2011-07-19 07:26:07 51°20.225 2°50.215 337.5 13 333 16.7
2011-07-19 07:26:13 51°20.244 2°50.199 337.4 13 332 17
2011-07-19 07:26:17 51°20.257 2°50.188 336.9 13.1 331 17.4
2011-07-19 07:26:21 51°20.27 2°50.177 336.4 13.1 332 17.4
2011-07-19 07:26:27 51°20.289 2°50.161 336.5 13 332 17.5
2011-07-19 07:26:33 51°20.308 2°50.145 336.8 13 333 18.1
2011-07-19 07:26:37 51°20.321 2°50.134 337.2 13 333 18.4
2011-07-19 07:26:41 51°20.334 2°50.124 337.8 13.1 333 18.7
2011-07-19 07:26:47 51°20.353 2°50.108 337.9 13 333 18.6
2011-07-19 07:26:53 51°20.373 2°50.093 337.9 13 333 18.9
2011-07-19 07:26:57 51°20.385 2°50.082 338.1 13 333 19.3
2011-07-19 07:27:01 51°20.398 2°50.072 338.1 12.9 333 19.2
2011-07-19 07:27:07 51°20.418 2°50.057 338.1 13 333 19.6
2011-07-19 07:27:12 51°20.434 2°50.044 338.3 13 334 19.8
2011-07-19 07:27:17 51°20.45 2°50.032 338.9 13.1 335 20.2
2011-07-19 07:27:21 51°20.463 2°50.022 339.8 13 335 20.5
2011-07-19 07:27:27 51°20.483 2°50.008 340.3 13 336 20.4
2011-07-19 07:27:33 51°20.502 2°49.994 340.8 12.9 336 20.8
2011-07-19 07:27:37 51°20.516 2°49.985 341.1 12.9 336 21
2011-07-19 07:27:43 51°20.535 2°49.971 341.9 12.9 337 21.3
2011-07-19 07:27:47 51°20.549 2°49.962 341.9 12.9 336 21.4
2011-07-19 07:27:53 51°20.568 2°49.948 341.4 13 336 21.6
2011-07-19 07:27:57 51°20.581 2°49.939 341.1 13 336 21.9
2011-07-19 07:28:03 51°20.601 2°49.924 340.5 13 336 22.1
2011-07-19 07:28:07 51°20.614 2°49.915 340.5 13 335 22.2
2011-07-19 07:28:13 51°20.634 2°49.901 340.5 12.9 335 22.2
2011-07-19 07:28:17 51°20.647 2°49.891 339.8 12.9 334 22.1
2011-07-19 07:28:21 51°20.66 2°49.881 339.3 12.9 335 22.1
2011-07-19 07:28:27 51°20.679 2°49.866 339 13 334 22.4
2011-07-19 07:28:33 51°20.698 2°49.851 338.6 12.9 334 22.3
2011-07-19 07:28:37 51°20.711 2°49.84 338.2 13 333 22.8
2011-07-19 07:28:41 51°20.724 2°49.83 337.4 13 333 22.7
2011-07-19 07:28:47 51°20.743 2°49.813 337 13 333 22.4
2011-07-19 07:28:53 51°20.762 2°49.797 336.8 13 332 22.6
2011-07-19 07:28:57 51°20.775 2°49.787 336.9 13 333 23
2011-07-19 07:29:01 51°20.788 2°49.777 337.4 12.9 333 22.8
2011-07-19 07:29:07 51°20.807 2°49.762 337.6 12.9 334 22.9
2011-07-19 07:29:12 51°20.823 2°49.749 338.1 12.9 335 22.4
2011-07-19 07:29:17 51°20.839 2°49.737 338.6 12.9 335 22.6
2011-07-19 07:29:21 51°20.852 2°49.728 339.3 12.9 335 23
2011-07-19 07:29:27 51°20.872 2°49.714 339.7 12.9 336 22.8
2011-07-19 07:29:33 51°20.891 2°49.7 340 12.9 336 23
2011-07-19 07:29:37 51°20.904 2°49.691 340.5 12.9 338 22.8
2011-07-19 07:29:41 51°20.917 2°49.682 341.2 12.8 337 22.7
2011-07-19 07:29:47 51°20.937 2°49.669 341.2 12.8 337 22.9
2011-07-19 07:29:53 51°20.957 2°49.656 341.4 12.8 337 22.8
2011-07-19 07:29:57 51°20.97 2°49.647 341.6 12.8 338 22.8
2011-07-19 07:30:03 51°20.99 2°49.634 341.5 12.9 336 22.6
2011-07-19 07:30:07 51°21.003 2°49.625 341.5 12.9 337 22.5
2011-07-19 07:30:13 51°21.022 2°49.611 341.1 12.9 336 22.6
2011-07-19 07:30:17 51°21.035 2°49.601 340.4 12.9 336 22.8
2011-07-19 07:30:21 51°21.048 2°49.591 340 12.9 335 22.5
2011-07-19 07:30:27 51°21.068 2°49.577 339.3 12.9 335 22.7
2011-07-19 07:30:33 51°21.087 2°49.562 338.8 12.9 334 22.4
2011-07-19 07:30:37 51°21.099 2°49.551 338 12.9 333 22.2
2011-07-19 07:30:41 51°21.112 2°49.541 337.2 12.9 333 22
2011-07-19 07:30:47 51°21.131 2°49.525 337 12.9 333 21.9
2011-07-19 07:30:53 51°21.151 2°49.509 337 13 332 22.1
2011-07-19 07:30:57 51°21.163 2°49.499 336.5 12.9 332 21.9
2011-07-19 07:31:01 51°21.176 2°49.488 336.5 12.9 333 21.9
2011-07-19 07:31:07 51°21.195 2°49.473 337 13 333 21.9
2011-07-19 07:31:13 51°21.215 2°49.458 337.7 13 334 21.9
2011-07-19 07:31:17 51°21.228 2°49.448 338.3 13 335 21.9
2011-07-19 07:31:21 51°21.241 2°49.439 338.9 13 336 21.9
2011-07-19 07:31:27 51°21.261 2°49.425 339.5 13 336 21.7
2011-07-19 07:31:32 51°21.277 2°49.413 339.8 12.9 337 21.7
2011-07-19 07:31:37 51°21.294 2°49.403 341 13 338 21.9
2011-07-19 07:31:41 51°21.307 2°49.393 341.4 13 337 21.8
2011-07-19 07:31:47 51°21.328 2°49.38 341.3 13.1 338 21.8
2011-07-19 07:31:53 51°21.348 2°49.366 341.3 13 337 21.4
2011-07-19 07:31:57 51°21.361 2°49.357 340.8 13 337 21.3
2011-07-19 07:32:03 51°21.381 2°49.344 341.1 13 337 21.6
2011-07-19 07:32:07 51°21.394 2°49.335 340.9 13 336 21.3
2011-07-19 07:32:13 51°21.413 2°49.32 339.8 13 335 21
2011-07-19 07:32:17 51°21.426 2°49.31 339.3 13 334 21.2
2011-07-19 07:32:23 51°21.446 2°49.294 338.5 13 334 20.9
2011-07-19 07:32:27 51°21.459 2°49.284 338 13 333 21.2
2011-07-19 07:32:33 51°21.478 2°49.268 336.9 13 331 21.2
2011-07-19 07:32:37 51°21.49 2°49.257 335.8 13 331 21.1
2011-07-19 07:32:41 51°21.503 2°49.245 335.1 13 330 21.3
2011-07-19 07:32:47 51°21.522 2°49.228 334.7 13 331 21.5
2011-07-19 07:32:53 51°21.541 2°49.211 334.8 13.1 331 21.7
2011-07-19 07:32:57 51°21.554 2°49.2 335.1 13.1 331 21.8
2011-07-19 07:33:01 51°21.567 2°49.19 335.4 13 332 21.7
2011-07-19 07:33:07 51°21.586 2°49.174 336.1 13.1 333 21.9
2011-07-19 07:33:13 51°21.605 2°49.158 337 13.1 334 22.1
2011-07-19 07:33:17 51°21.618 2°49.148 337.5 13 334 21.9
2011-07-19 07:33:21 51°21.631 2°49.138 337.8 13.1 334 22.4
2011-07-19 07:33:27 51°21.65 2°49.122 338.1 13 334 22.5
2011-07-19 07:33:32 51°21.666 2°49.11 338.2 13 334 22.4
2011-07-19 07:33:37 51°21.683 2°49.097 338.2 13 334 22.9
2011-07-19 07:33:41 51°21.696 2°49.087 338.3 13 334 22.6
2011-07-19 07:33:47 51°21.715 2°49.072 338.5 13 334 22.9
2011-07-19 07:33:52 51°21.731 2°49.059 338.3 13 334 22.9
2011-07-19 07:33:57 51°21.747 2°49.046 337.6 13 333 22.8
2011-07-19 07:34:01 51°21.76 2°49.036 337.5 13 332 22.9
2011-07-19 07:34:07 51°21.779 2°49.02 336.9 13 332 23
2011-07-19 07:34:13 51°21.799 2°49.004 336.6 13.1 332 22.7
2011-07-19 07:34:17 51°21.811 2°48.993 336.3 13 332 23.2
2011-07-19 07:34:23 51°21.83 2°48.977 336.2 13 332 22.9
2011-07-19 07:34:27 51°21.843 2°48.966 336.7 13 332 22.7
2011-07-19 07:34:33 51°21.862 2°48.95 336.9 13 333 23.1
2011-07-19 07:34:37 51°21.875 2°48.94 337.2 13 333 23.2
2011-07-19 07:34:43 51°21.895 2°48.924 337.4 13 333 23.2
2011-07-19 07:34:47 51°21.907 2°48.914 337.6 13 333 23
2011-07-19 07:34:53 51°21.927 2°48.898 337.3 13 333 23.1
2011-07-19 07:34:57 51°21.939 2°48.887 336.9 13 332 23.1
2011-07-19 07:35:01 51°21.952 2°48.876 336.2 13 331 22.9
2011-07-19 07:35:07 51°21.971 2°48.859 335.4 13 331 23.3
2011-07-19 07:35:13 51°21.99 2°48.842 335.3 13 331 23.2
2011-07-19 07:35:17 51°22.002 2°48.831 335.4 13 331 23
2011-07-19 07:35:21 51°22.015 2°48.819 335.2 13 331 22.9
2011-07-19 07:35:27 51°22.034 2°48.803 335.2 13 330 23.1
2011-07-19 07:35:33 51°22.053 2°48.785 335 13 330 23.1
2011-07-19 07:35:37 51°22.065 2°48.774 334.7 13 330 22.9
2011-07-19 07:35:41 51°22.078 2°48.763 335.1 13 331 23.2
2011-07-19 07:35:47 51°22.096 2°48.746 335.1 13 330 23.2
2011-07-19 07:35:53 51°22.115 2°48.729 335.4 13.1 331 23.4
2011-07-19 07:35:57 51°22.128 2°48.717 335.5 13.1 331 23.4
2011-07-19 07:36:01 51°22.141 2°48.706 335.6 13.1 332 23.1
2011-07-19 07:36:07 51°22.16 2°48.69 336 13.1 332 23.1
2011-07-19 07:36:13 51°22.179 2°48.674 336.6 13 333 23.3
2011-07-19 07:36:17 51°22.192 2°48.664 337.7 13 334 22.9
2011-07-19 07:36:21 51°22.205 2°48.654 339 13 336 22.9
2011-07-19 07:36:27 51°22.225 2°48.64 339.7 13 335 22.6
2011-07-19 07:36:33 51°22.245 2°48.626 340.1 12.9 335 22.6
2011-07-19 07:36:37 51°22.258 2°48.616 341 13 336 22.7
2011-07-19 07:36:43 51°22.278 2°48.602 340.4 13 335 22.4
2011-07-19 07:36:47 51°22.291 2°48.592 340.1 12.9 335 21.6
2011-07-19 07:36:53 51°22.31 2°48.578 340.4 13 335 21.6
2011-07-19 07:36:57 51°22.323 2°48.568 340.3 13 335 21.2
2011-07-19 07:37:03 51°22.343 2°48.553 339.4 12.9 335 21
2011-07-19 07:37:07 51°22.356 2°48.543 339 13 333 21.2
2011-07-19 07:37:13 51°22.375 2°48.527 338.3 13 333 20.5
2011-07-19 07:37:17 51°22.387 2°48.516 337.7 12.9 332 19.5
2011-07-19 07:37:21 51°22.4 2°48.506 337.4 13 332 18.8
2011-07-19 07:37:27 51°22.419 2°48.489 336.4 13 332 18
2011-07-19 07:37:33 51°22.438 2°48.472 335.8 13 330 17.4
2011-07-19 07:37:37 51°22.45 2°48.46 335.1 12.9 330 15.9
2011-07-19 07:37:41 51°22.463 2°48.449 334.7 13 330 14.5
2011-07-19 07:37:47 51°22.481 2°48.432 334.8 12.9 330 16.6
2011-07-19 07:37:53 51°22.5 2°48.415 335.3 12.9 331 17.3
2011-07-19 07:37:57 51°22.512 2°48.404 335.4 13 331 17
2011-07-19 07:38:01 51°22.525 2°48.393 335.9 13 332 17.1
2011-07-19 07:38:07 51°22.545 2°48.377 336.4 13 332 16.6
2011-07-19 07:38:12 51°22.56 2°48.364 336.7 13 333 15.9
2011-07-19 07:38:17 51°22.577 2°48.351 337.6 12.9 334 14
2011-07-19 07:38:21 51°22.589 2°48.341 338.4 12.9 334 15.9
2011-07-19 07:38:27 51°22.609 2°48.326 339.2 12.9 335 17.1
2011-07-19 07:38:33 51°22.629 2°48.311 339.8 13 334 17.6
2011-07-19 07:38:37 51°22.642 2°48.302 339.9 13 336 17.3
2011-07-19 07:38:43 51°22.662 2°48.288 340.6 13 336 17
2011-07-19 07:38:47 51°22.675 2°48.278 340.3 13 335 15.1
2011-07-19 07:38:53 51°22.695 2°48.264 340 13 336 16
2011-07-19 07:38:57 51°22.707 2°48.254 339.8 13 334 17.4
2011-07-19 07:39:03 51°22.727 2°48.239 339.1 12.9 336 18.2
2011-07-19 07:39:07 51°22.74 2°48.229 339.4 13 334 18.6
2011-07-19 07:39:13 51°22.76 2°48.215 339.3 13 335 18
2011-07-19 07:39:17 51°22.773 2°48.204 339 13 334 17.9
2011-07-19 07:39:21 51°22.785 2°48.194 338.4 13 333 18.1
2011-07-19 07:39:27 51°22.805 2°48.178 337.6 13 333 18.8
2011-07-19 07:39:33 51°22.823 2°48.161 336.5 13 331 19.1
2011-07-19 07:39:37 51°22.836 2°48.15 335.6 13 332 19.2
2011-07-19 07:39:41 51°22.849 2°48.139 335.3 13 331 19.4
2011-07-19 07:39:47 51°22.868 2°48.122 335.1 13 330 19.3
2011-07-19 07:39:53 51°22.886 2°48.105 334.5 13 330 18.9
2011-07-19 07:39:57 51°22.899 2°48.093 334.4 13 331 19.1
2011-07-19 07:40:01 51°22.912 2°48.082 334.7 13 330 19.9
2011-07-19 07:40:07 51°22.93 2°48.065 334.7 13.1 331 20.2
2011-07-19 07:40:13 51°22.949 2°48.048 334.9 13 331 20.1
2011-07-19 07:40:17 51°22.962 2°48.036 335 13 331 20.1
2011-07-19 07:40:21 51°22.975 2°48.026 335.5 13 332 20.1
2011-07-19 07:40:27 51°22.994 2°48.009 335.7 13 332 20.4
2011-07-19 07:40:32 51°23.01 2°47.995 336 12.9 331 20.4
2011-07-19 07:40:37 51°23.025 2°47.982 336.1 12.9 332 20.3
2011-07-19 07:40:41 51°23.038 2°47.971 336.9 12.9 333 20.5
2011-07-19 07:40:47 51°23.058 2°47.956 337.4 13 334 19.1
2011-07-19 07:40:53 51°23.077 2°47.942 338.5 13 335 18.7
2011-07-19 07:40:57 51°23.09 2°47.932 339.2 13 335 19
2011-07-19 07:41:03 51°23.11 2°47.917 339.9 12.9 336 18.4
2011-07-19 07:41:07 51°23.123 2°47.908 340.3 12.9 335 18.3
2011-07-19 07:41:13 51°23.142 2°47.894 340.5 12.9 336 18.1
2011-07-19 07:41:17 51°23.155 2°47.884 340.5 13 335 18
2011-07-19 07:41:23 51°23.175 2°47.869 339.8 12.9 335 18.2
2011-07-19 07:41:27 51°23.188 2°47.859 339.7 12.9 333 17.9
2011-07-19 07:41:33 51°23.207 2°47.844 338.6 12.9 334 17.6
2011-07-19 07:41:37 51°23.22 2°47.833 338.3 13 332 15.9
2011-07-19 07:41:41 51°23.232 2°47.823 337.7 12.9 332 16.5
2011-07-19 07:41:47 51°23.251 2°47.806 336.7 12.9 331 17.4
2011-07-19 07:41:53 51°23.27 2°47.789 336.2 13 331 17.7
2011-07-19 07:41:57 51°23.283 2°47.778 335.8 13 330 18.5
2011-07-19 07:42:01 51°23.295 2°47.767 335.4 13.1 332 19.7
2011-07-19 07:42:07 51°23.315 2°47.75 335.9 13.1 331 19.7
2011-07-19 07:42:13 51°23.334 2°47.733 335.9 13.1 331 20.2
2011-07-19 07:42:17 51°23.346 2°47.722 335.8 13.1 330 20.5
2011-07-19 07:42:21 51°23.359 2°47.711 335.2 13 331 20.9
2011-07-19 07:42:27 51°23.378 2°47.693 334.8 13.1 331 20.4
2011-07-19 07:42:33 51°23.397 2°47.676 334.7 13.1 330 21.2
2011-07-19 07:42:37 51°23.409 2°47.665 334.7 13 331 20.8
2011-07-19 07:42:41 51°23.422 2°47.654 335 13 332 20.5
2011-07-19 07:42:47 51°23.441 2°47.638 335.5 13.1 333 20.6
2011-07-19 07:42:53 51°23.46 2°47.622 336.4 13 333 20.3
2011-07-19 07:42:57 51°23.473 2°47.612 337.4 13 334 20.7
2011-07-19 07:43:01 51°23.486 2°47.602 338.1 13 334 20.9
2011-07-19 07:43:07 51°23.506 2°47.587 339 13 336 21.5
2011-07-19 07:43:13 51°23.525 2°47.572 339.2 13 335 21.5
2011-07-19 07:43:17 51°23.538 2°47.563 339.8 13 337 21.7
2011-07-19 07:43:23 51°23.558 2°47.549 340.3 13 336 22.1
2011-07-19 07:43:27 51°23.571 2°47.539 340.5 13 336 22.3
2011-07-19 07:43:33 51°23.591 2°47.525 340.5 13 335 22.6
2011-07-19 07:43:37 51°23.604 2°47.516 339.8 13 336 22.5
2011-07-19 07:43:43 51°23.624 2°47.501 339.7 13 335 22.7
2011-07-19 07:43:47 51°23.637 2°47.492 339.4 13 335 22.9
2011-07-19 07:43:53 51°23.656 2°47.477 339 13 334 22.7
2011-07-19 07:43:57 51°23.669 2°47.466 338.5 13 334 22.8
2011-07-19 07:44:01 51°23.682 2°47.456 338.4 13 334 23.2
2011-07-19 07:44:07 51°23.702 2°47.441 338.3 13 334 23.2
2011-07-19 07:44:13 51°23.721 2°47.426 338.4 13 334 23.6
2011-07-19 07:44:17 51°23.734 2°47.416 338.4 13 334 23.6
2011-07-19 07:44:21 51°23.747 2°47.406 338.3 13 334 23.1
2011-07-19 07:44:27 51°23.766 2°47.39 337.9 12.9 333 21.5
2011-07-19 07:44:33 51°23.785 2°47.374 337.3 12.9 331 19.6
2011-07-19 07:44:37 51°23.798 2°47.363 336.2 13 331 18.8
2011-07-19 07:44:41 51°23.81 2°47.351 335.1 13 330 19.5
2011-07-19 07:44:47 51°23.829 2°47.334 335 13 331 20
2011-07-19 07:44:53 51°23.847 2°47.316 335.2 13 330 21.4
2011-07-19 07:44:57 51°23.86 2°47.306 335.2 13 331 22.4
2011-07-19 07:45:01 51°23.873 2°47.294 335.4 13 331 23.4
2011-07-19 07:45:07 51°23.892 2°47.277 335.5 12.9 331 24.3
2011-07-19 07:45:13 51°23.91 2°47.261 335.3 13 331 25.1
2011-07-19 07:45:17 51°23.923 2°47.249 335 12.9 331 25
2011-07-19 07:45:23 51°23.942 2°47.233 335.5 12.9 332 25.4
2011-07-19 07:45:27 51°23.954 2°47.221 335.4 12.9 330 25.7
2011-07-19 07:45:33 51°23.973 2°47.205 335.2 13 331 26
2011-07-19 07:45:37 51°23.985 2°47.193 335 13 330 25.9
2011-07-19 07:45:43 51°24.004 2°47.177 335.1 12.9 332 26
2011-07-19 07:45:47 51°24.017 2°47.165 335.4 12.9 330 26.4
2011-07-19 07:45:53 51°24.036 2°47.148 335.4 12.9 331 26.2
2011-07-19 07:45:57 51°24.048 2°47.137 335.3 12.9 330 26.4
2011-07-19 07:46:01 51°24.06 2°47.125 335.1 12.9 330 26.1
2011-07-19 07:46:07 51°24.079 2°47.109 335.2 13 331 26.4
2011-07-19 07:46:13 51°24.098 2°47.092 335.4 12.9 331 26.5
2011-07-19 07:46:17 51°24.111 2°47.081 335.8 12.9 332 27
2011-07-19 07:46:21 51°24.123 2°47.07 336.5 12.9 332 27.3
2011-07-19 07:46:27 51°24.142 2°47.054 337.2 12.9 332 27.1
2011-07-19 07:46:33 51°24.161 2°47.039 337.6 12.9 334 26.9
2011-07-19 07:46:37 51°24.174 2°47.03 338.9 12.9 335 26.1
2011-07-19 07:46:41 51°24.187 2°47.019 339.5 12.9 335 26.6
2011-07-19 07:46:47 51°24.207 2°47.006 340.3 12.9 337 27.8
2011-07-19 07:46:53 51°24.226 2°46.992 340.7 12.9 336 27.6
2011-07-19 07:46:57 51°24.239 2°46.983 340.9 12.8 337 27.2
2011-07-19 07:47:01 51°24.252 2°46.973 340.8 12.8 335 26.4
2011-07-19 07:47:07 51°24.272 2°46.959 340.4 12.9 335 27.5
2011-07-19 07:47:13 51°24.291 2°46.944 339.7 12.9 335 28.2
2011-07-19 07:47:17 51°24.304 2°46.934 339.7 12.9 336 28.8
2011-07-19 07:47:21 51°24.317 2°46.924 340 12.8 335 28.9
2011-07-19 07:47:27 51°24.336 2°46.91 339.6 12.9 334 29.4
2011-07-19 07:47:33 51°24.355 2°46.895 339.3 12.8 334 29.8
2011-07-19 07:47:37 51°24.368 2°46.885 339 12.9 334 30.4
2011-07-19 07:47:42 51°24.384 2°46.872 338.7 12.8 333 30.4
2011-07-19 07:47:47 51°24.4 2°46.859 338.5 12.9 333 30
2011-07-19 07:47:52 51°24.416 2°46.846 338.3 12.9 332 28.5
2011-07-19 07:47:57 51°24.432 2°46.833 337.4 12.9 332 28.3
2011-07-19 07:48:02 51°24.447 2°46.818 336.5 12.9 331 28.9
2011-07-19 07:48:07 51°24.463 2°46.805 335.8 12.9 331 28.6
2011-07-19 07:48:12 51°24.478 2°46.79 335.3 12.9 330 28.9
2011-07-19 07:48:17 51°24.494 2°46.776 334.9 12.9 330 29.4
2011-07-19 07:48:22 51°24.509 2°46.761 334.7 12.9 330 29.6
2011-07-19 07:48:27 51°24.525 2°46.747 334.7 12.9 330 29.2
2011-07-19 07:48:32 51°24.54 2°46.733 335.1 12.8 330 28.6
2011-07-19 07:48:37 51°24.556 2°46.719 335.8 12.8 331 28.3
2011-07-19 07:48:42 51°24.571 2°46.706 336.5 12.8 332 28.8
2011-07-19 07:48:47 51°24.587 2°46.693 337.2 12.9 332 29.2
2011-07-19 07:48:53 51°24.606 2°46.677 337.9 12.9 333 28.9
2011-07-19 07:48:57 51°24.619 2°46.667 338.3 12.9 334 27.9
2011-07-19 07:49:01 51°24.632 2°46.657 338.8 12.8 334 26.6
2011-07-19 07:49:07 51°24.651 2°46.642 339.1 12.8 334 26
2011-07-19 07:49:13 51°24.67 2°46.627 339.4 12.8 334 27
2011-07-19 07:49:17 51°24.683 2°46.617 339.5 12.9 334 26.9
2011-07-19 07:49:21 51°24.696 2°46.607 339.8 12.9 335 27.5
2011-07-19 07:49:27 51°24.715 2°46.593 339.9 12.8 335 27.4
2011-07-19 07:49:32 51°24.732 2°46.581 340.2 12.9 335 27.4
2011-07-19 07:49:37 51°24.748 2°46.568 339.7 12.9 334 27.3
2011-07-19 07:49:41 51°24.76 2°46.558 339 12.9 334 25.9
2011-07-19 07:49:47 51°24.78 2°46.543 339.2 12.9 334 25.7
2011-07-19 07:49:52 51°24.796 2°46.531 339.1 12.9 333 25.1
2011-07-19 07:49:57 51°24.812 2°46.518 338.6 12.9 333 24.2
2011-07-19 07:50:01 51°24.825 2°46.508 338.3 12.9 333 24.4
2011-07-19 07:50:07 51°24.844 2°46.492 338.1 12.9 332 24.5
2011-07-19 07:50:12 51°24.859 2°46.478 337.2 12.9 331 24.6
2011-07-19 07:50:17 51°24.875 2°46.464 336.4 12.9 331 24.1
2011-07-19 07:50:21 51°24.887 2°46.453 335.5 12.9 330 24.4
2011-07-19 07:50:27 51°24.906 2°46.435 335.1 12.9 329 24.1
2011-07-19 07:50:33 51°24.924 2°46.418 334.5 12.9 329 24
2011-07-19 07:50:37 51°24.937 2°46.406 334.7 12.9 329 23.9
2011-07-19 07:50:41 51°24.949 2°46.395 334.6 12.9 331 24.6
2011-07-19 07:50:47 51°24.968 2°46.378 335.3 12.9 331 24.2
2011-07-19 07:50:53 51°24.987 2°46.362 335.7 12.8 332 24.1
2011-07-19 07:50:57 51°24.999 2°46.351 336.1 12.9 331 24.2
2011-07-19 07:51:01 51°25.012 2°46.34 336.2 12.9 332 24.3
2011-07-19 07:51:07 51°25.031 2°46.324 336.8 12.9 332 24
2011-07-19 07:51:13 51°25.05 2°46.308 337.1 12.8 332 24.1
2011-07-19 07:51:17 51°25.062 2°46.298 337.1 12.8 333 24.4
2011-07-19 07:51:21 51°25.075 2°46.287 337.2 12.8 332 24.1
2011-07-19 07:51:27 51°25.094 2°46.271 336.9 12.9 333 23.7
2011-07-19 07:51:33 51°25.113 2°46.254 336.8 12.9 331 23.1
2011-07-19 07:51:37 51°25.125 2°46.244 336.7 12.8 332 24.3
2011-07-19 07:51:41 51°25.138 2°46.233 336.6 12.9 331 24.6
2011-07-19 07:51:47 51°25.156 2°46.217 336.3 12.8 332 24.1
2011-07-19 07:51:52 51°25.172 2°46.203 336.4 12.8 331 23.9
2011-07-19 07:51:57 51°25.188 2°46.189 336.2 12.9 332 24.9
2011-07-19 07:52:01 51°25.2 2°46.178 336.1 12.9 331 25.1
2011-07-19 07:52:07 51°25.219 2°46.162 336 12.8 331 25.2
2011-07-19 07:52:12 51°25.234 2°46.148 335.9 12.8 332 25
2011-07-19 07:52:17 51°25.25 2°46.135 337.2 12.9 334 24.8
2011-07-19 07:52:21 51°25.263 2°46.125 338.3 12.9 334 23.8
2011-07-19 07:52:27 51°25.283 2°46.111 339.5 12.8 335 24.1
2011-07-19 07:52:32 51°25.299 2°46.1 340.4 12.8 336 24.4
2011-07-19 07:52:37 51°25.315 2°46.088 341.5 12.8 337 22.8
2011-07-19 07:52:41 51°25.328 2°46.08 342.7 12.8 339 24.3
2011-07-19 07:52:47 51°25.348 2°46.068 343.7 12.8 339 24.8
2011-07-19 07:52:53 51°25.368 2°46.056 344.3 12.8 339 24.6
2011-07-19 07:52:57 51°25.382 2°46.048 344.6 12.8 340 25.1
2011-07-19 07:53:01 51°25.395 2°46.04 344.2 12.8 338 24.9
2011-07-19 07:53:07 51°25.415 2°46.027 343.8 12.8 339 24.5
2011-07-19 07:53:13 51°25.434 2°46.014 343.2 12.8 338 23.9
2011-07-19 07:53:17 51°25.448 2°46.005 342.9 12.8 337 22.8
2011-07-19 07:53:21 51°25.461 2°45.996 342.2 12.8 336 24.3
2011-07-19 07:53:27 51°25.48 2°45.983 341.5 12.8 336 24.7
2011-07-19 07:53:33 51°25.5 2°45.969 341.4 12.8 336 24.8
2011-07-19 07:53:37 51°25.513 2°45.959 341.2 12.8 337 24.3
2011-07-19 07:53:41 51°25.526 2°45.95 341.3 12.9 335 24.3
2011-07-19 07:53:47 51°25.545 2°45.936 340.9 12.9 336 23.9
2011-07-19 07:53:53 51°25.565 2°45.922 340.9 12.9 336 23.9
2011-07-19 07:53:57 51°25.578 2°45.913 341.3 12.8 336 22.9
2011-07-19 07:54:01 51°25.591 2°45.904 341.3 12.9 337 22.1
2011-07-19 07:54:07 51°25.611 2°45.89 341.3 12.8 336 23.5
2011-07-19 07:54:12 51°25.627 2°45.878 341 12.8 335 23.9
2011-07-19 07:54:17 51°25.643 2°45.866 340.4 12.8 336 24.5
2011-07-19 07:54:21 51°25.656 2°45.857 340.5 12.8 336 24.7
2011-07-19 07:54:27 51°25.675 2°45.843 340.6 12.8 335 24.8
2011-07-19 07:54:32 51°25.691 2°45.831 340.3 12.9 335 24.5
2011-07-19 07:54:37 51°25.707 2°45.818 339.3 12.9 333 23.5
2011-07-19 07:54:41 51°25.72 2°45.808 339.1 12.8 334 23.6
2011-07-19 07:54:47 51°25.74 2°45.793 338.6 12.9 335 24.3
2011-07-19 07:54:53 51°25.759 2°45.778 339.2 12.9 335 24.7
2011-07-19 07:54:57 51°25.772 2°45.768 339.7 12.8 335 25.1
2011-07-19 07:55:01 51°25.785 2°45.759 340.4 12.9 335 25
2011-07-19 07:55:07 51°25.804 2°45.745 340.5 12.9 336 24.7
2011-07-19 07:55:13 51°25.824 2°45.731 341 12.9 337 24.6
2011-07-19 07:55:17 51°25.837 2°45.722 341.5 12.9 337 25.2
2011-07-19 07:55:21 51°25.851 2°45.713 341.9 12.9 338 25.5
2011-07-19 07:55:27 51°25.871 2°45.701 342.9 12.9 339 25.6
2011-07-19 07:55:33 51°25.89 2°45.689 343.1 12.9 339 25.7
2011-07-19 07:55:37 51°25.904 2°45.681 344 12.9 339 25.1
2011-07-19 07:55:41 51°25.917 2°45.673 343.8 12.9 340 24.5
2011-07-19 07:55:47 51°25.937 2°45.66 344.1 12.9 340 24.1
2011-07-19 07:55:53 51°25.958 2°45.648 344.3 12.9 340 23.5
2011-07-19 07:55:57 51°25.971 2°45.64 344 12.9 338 24.1
2011-07-19 07:56:01 51°25.984 2°45.631 342.8 12.9 338 24.2
2011-07-19 07:56:07 51°26.004 2°45.618 342.3 12.9 338 25
2011-07-19 07:56:12 51°26.02 2°45.608 342.2 12.8 337 25.2
2011-07-19 07:56:17 51°26.037 2°45.597 342 12.9 337 25.6
2011-07-19 07:56:21 51°26.05 2°45.588 342.1 12.8 338 26.2
2011-07-19 07:56:27 51°26.07 2°45.576 342.3 12.8 339 26.7
2011-07-19 07:56:32 51°26.086 2°45.565 342.8 12.9 337 26.7
2011-07-19 07:56:37 51°26.103 2°45.554 342.2 12.8 338 24.7
2011-07-19 07:56:41 51°26.116 2°45.545 342.2 12.8 337 25.3
2011-07-19 07:56:47 51°26.136 2°45.531 341.8 12.8 337 26.3
2011-07-19 07:56:52 51°26.152 2°45.52 341.2 12.9 335 26.2
2011-07-19 07:56:57 51°26.168 2°45.508 340.1 12.8 336 26
2011-07-19 07:57:01 51°26.181 2°45.498 340 12.8 336 26
2011-07-19 07:57:07 51°26.2 2°45.484 340.2 12.8 336 24.9
2011-07-19 07:57:13 51°26.22 2°45.47 340.5 12.8 335 24.6
2011-07-19 07:57:17 51°26.233 2°45.461 340.6 12.8 337 25.3
2011-07-19 07:57:21 51°26.246 2°45.452 341.1 12.8 336 24.7
2011-07-19 07:57:27 51°26.265 2°45.439 341.7 12.8 337 24.7
2011-07-19 07:57:33 51°26.285 2°45.425 341.6 12.9 336 25.7
2011-07-19 07:57:37 51°26.298 2°45.416 341.4 12.9 338 26.3
2011-07-19 07:57:41 51°26.311 2°45.407 341.9 12.7 337 27
2011-07-19 07:57:47 51°26.331 2°45.393 341.5 12.7 336 27.2
2011-07-19 07:57:53 51°26.35 2°45.38 341.3 12.8 336 26.9
2011-07-19 07:57:57 51°26.363 2°45.371 341.2 12.8 336 27.1
2011-07-19 07:58:01 51°26.376 2°45.362 340.9 12.8 335 27.2
2011-07-19 07:58:07 51°26.395 2°45.347 339.6 12.8 335 27.4
2011-07-19 07:58:13 51°26.415 2°45.332 339.8 12.8 334 27.7
2011-07-19 07:58:17 51°26.427 2°45.323 339.6 12.7 335 27.5
2011-07-19 07:58:21 51°26.44 2°45.313 338.9 12.8 334 27.7
2011-07-19 07:58:27 51°26.46 2°45.298 339 12.9 334 27.5
2011-07-19 07:58:33 51°26.479 2°45.283 339 12.9 334 27.6
2011-07-19 07:58:37 51°26.491 2°45.273 339.1 12.8 335 27.7
2011-07-19 07:58:41 51°26.504 2°45.264 339.7 12.8 335 27.5
2011-07-19 07:58:47 51°26.524 2°45.249 339.8 12.9 335 27.7
2011-07-19 07:58:52 51°26.54 2°45.237 340 12.8 336 27.5
2011-07-19 07:58:57 51°26.556 2°45.225 340.3 12.8 335 27.6
2011-07-19 07:59:01 51°26.569 2°45.216 339.9 12.8 335 27.7
2011-07-19 07:59:07 51°26.588 2°45.201 340 12.8 335 27.2
2011-07-19 07:59:12 51°26.604 2°45.189 339.8 12.8 334 27.5
2011-07-19 07:59:17 51°26.62 2°45.177 339.6 12.8 335 27.6
2011-07-19 07:59:21 51°26.633 2°45.167 339.5 12.9 334 27.6
2011-07-19 07:59:27 51°26.652 2°45.152 339.2 12.8 334 27.5
2011-07-19 07:59:33 51°26.672 2°45.138 339.2 12.8 335 27.6
2011-07-19 07:59:37 51°26.684 2°45.128 340 12.8 334 27.3
2011-07-19 07:59:41 51°26.697 2°45.118 340.3 12.8 337 27.5
2011-07-19 07:59:47 51°26.717 2°45.104 341 12.8 335 27.3
2011-07-19 07:59:53 51°26.736 2°45.091 341.2 12.8 337 27.6
2011-07-19 07:59:57 51°26.75 2°45.082 342.1 12.9 338 27.6
2011-07-19 08:00:01 51°26.763 2°45.074 343.2 12.8 338 27.4
2011-07-19 08:00:07 51°26.783 2°45.062 343.8 12.8 339 27.4
2011-07-19 08:00:13 51°26.803 2°45.05 344.2 12.7 340 27.2
2011-07-19 08:00:17 51°26.816 2°45.041 344.7 12.8 338 27.1
2011-07-19 08:00:21 51°26.829 2°45.033 344 12.8 339 27.3
2011-07-19 08:00:27 51°26.849 2°45.021 344.1 12.8 338 27.7
2011-07-19 08:00:33 51°26.868 2°45.007 343.5 12.8 337 28
2011-07-19 08:00:37 51°26.881 2°44.999 343 12.7 338 28.1
2011-07-19 08:00:41 51°26.894 2°44.99 342.8 12.8 337 28
2011-07-19 08:00:47 51°26.914 2°44.977 342.4 12.9 337 27.9
2011-07-19 08:00:52 51°26.93 2°44.966 342.5 12.8 336 28.2
2011-07-19 08:00:57 51°26.946 2°44.954 341.9 12.8 336 28.1
2011-07-19 08:01:01 51°26.959 2°44.945 341.4 12.8 336 28.3
2011-07-19 08:01:07 51°26.979 2°44.931 341.4 12.8 335 28
2011-07-19 08:01:12 51°26.995 2°44.919 340.9 12.8 336 28.1
2011-07-19 08:01:17 51°27.011 2°44.907 340.7 12.8 335 27.9
2011-07-19 08:01:21 51°27.024 2°44.898 341.1 12.8 336 28
2011-07-19 08:01:27 51°27.043 2°44.884 340.9 12.8 335 28.1
2011-07-19 08:01:33 51°27.063 2°44.87 340.7 12.8 336 27.4
2011-07-19 08:01:37 51°27.076 2°44.86 340.7 12.9 335 27.3
2011-07-19 08:01:43 51°27.095 2°44.847 340.8 12.8 336 27.2
2011-07-19 08:01:47 51°27.108 2°44.837 341.2 12.8 335 26.9
2011-07-19 08:01:53 51°27.128 2°44.823 341.2 12.8 336 26.7
2011-07-19 08:01:57 51°27.141 2°44.813 341.2 12.8 335 26.6
2011-07-19 08:02:01 51°27.153 2°44.803 341.1 12.8 336 26.8
2011-07-19 08:02:07 51°27.173 2°44.789 341.4 12.9 335 25.8
2011-07-19 08:02:13 51°27.192 2°44.775 341.2 12.9 335 26.2
2011-07-19 08:02:17 51°27.206 2°44.766 341 12.8 336 26.6
2011-07-19 08:02:21 51°27.219 2°44.756 341.2 12.9 335 27
2011-07-19 08:02:27 51°27.238 2°44.742 341.2 12.9 336 27.4
2011-07-19 08:02:33 51°27.258 2°44.728 341.1 12.8 335 27.3
2011-07-19 08:02:37 51°27.27 2°44.718 340.8 12.9 336 27.4
2011-07-19 08:02:41 51°27.283 2°44.709 340.8 12.8 335 26.8
2011-07-19 08:02:47 51°27.303 2°44.694 340.4 12.8 334 26.5
2011-07-19 08:02:53 51°27.322 2°44.68 340.1 12.8 335 25.8
2011-07-19 08:02:57 51°27.335 2°44.669 339.8 12.9 333 25.8
2011-07-19 08:03:01 51°27.348 2°44.659 338.9 12.9 334 25.7
2011-07-19 08:03:07 51°27.367 2°44.644 339.3 13 334 25.6
2011-07-19 08:03:12 51°27.383 2°44.631 339.1 12.9 334 25.2
2011-07-19 08:03:17 51°27.399 2°44.619 339.2 12.9 334 24.3
2011-07-19 08:03:21 51°27.412 2°44.608 339 12.9 334 23.6
2011-07-19 08:03:27 51°27.431 2°44.593 339 12.8 333 23.5
2011-07-19 08:03:32 51°27.447 2°44.581 339.4 12.9 334 24.2
2011-07-19 08:03:37 51°27.463 2°44.568 339.8 12.8 334 24.5
2011-07-19 08:03:41 51°27.476 2°44.559 341 12.8 336 24.5
2011-07-19 08:03:47 51°27.496 2°44.545 341.6 12.8 337 25.1
2011-07-19 08:03:53 51°27.516 2°44.533 342.6 12.8 338 25.4
2011-07-19 08:03:57 51°27.529 2°44.524 343.4 12.8 337 25.1
2011-07-19 08:04:03 51°27.549 2°44.512 344 12.8 340 25.5
2011-07-19 08:04:07 51°27.562 2°44.504 344.5 12.9 338 26.1
2011-07-19 08:04:13 51°27.582 2°44.49 343.7 12.9 337 25.8
2011-07-19 08:04:17 51°27.595 2°44.482 343.4 12.8 337 25.6
2011-07-19 08:04:21 51°27.608 2°44.473 342.7 12.8 338 25.5
2011-07-19 08:04:27 51°27.627 2°44.46 343.1 12.8 338 25.8
2011-07-19 08:04:33 51°27.647 2°44.447 343.7 12.8 338 25.6
2011-07-19 08:04:37 51°27.66 2°44.438 343.3 12.8 337 25.3
2011-07-19 08:04:41 51°27.673 2°44.43 343.1 12.8 338 26
2011-07-19 08:04:47 51°27.693 2°44.416 343.2 12.9 337 26.3
2011-07-19 08:04:53 51°27.713 2°44.403 343.3 12.8 338 26
2011-07-19 08:04:57 51°27.726 2°44.396 344.1 12.8 338 26.5
2011-07-19 08:05:01 51°27.739 2°44.387 343.6 12.8 338 26.2
2011-07-19 08:05:07 51°27.759 2°44.374 343.9 12.8 339 26.4
2011-07-19 08:05:13 51°27.779 2°44.361 343.8 12.8 338 26.4
2011-07-19 08:05:17 51°27.792 2°44.353 343.8 12.9 338 26.7
2011-07-19 08:05:21 51°27.805 2°44.344 343 12.8 336 26.7
2011-07-19 08:05:27 51°27.825 2°44.33 342.4 12.8 337 26.5
2011-07-19 08:05:32 51°27.841 2°44.318 341.8 12.8 335 26.8
2011-07-19 08:05:37 51°27.857 2°44.307 341.2 12.8 336 26.9
2011-07-19 08:05:41 51°27.87 2°44.297 340.2 12.8 334 27.4
2011-07-19 08:05:47 51°27.889 2°44.281 339.7 12.8 334 27.3
2011-07-19 08:05:52 51°27.905 2°44.269 339 12.9 334 27
2011-07-19 08:05:57 51°27.921 2°44.256 338.5 12.9 333 27.4
2011-07-19 08:06:01 51°27.933 2°44.245 338.4 12.8 334 27.7
2011-07-19 08:06:07 51°27.952 2°44.23 338.5 12.8 333 28
2011-07-19 08:06:13 51°27.971 2°44.215 338.8 12.9 334 28
2011-07-19 08:06:17 51°27.984 2°44.205 338.8 12.8 334 28.2
2011-07-19 08:06:21 51°27.997 2°44.195 339.2 12.8 334 28.7
2011-07-19 08:06:27 51°28.016 2°44.18 339.2 12.8 334 28.8
2011-07-19 08:06:33 51°28.035 2°44.165 339.4 12.9 334 29.1
2011-07-19 08:06:37 51°28.048 2°44.155 339.7 12.8 335 29.2